sensor_id;sensor_type;location;lat;lon;timestamp;pressure;altitude;pressure_sealevel;temperature;humidity
75290;BME280;63883;48.996;20.804;2022-11-20T00:00:50;96209.84;;;-4.31;87.30
75290;BME280;63883;48.996;20.804;2022-11-20T00:03:18;96216.47;;;-4.33;86.81
75290;BME280;63883;48.996;20.804;2022-11-20T00:05:44;96219.84;;;-4.29;86.38
75290;BME280;63883;48.996;20.804;2022-11-20T00:08:10;96219.09;;;-4.27;86.65
75290;BME280;63883;48.996;20.804;2022-11-20T00:10:37;96217.47;;;-4.25;86.84
75290;BME280;63883;48.996;20.804;2022-11-20T00:13:03;96204.25;;;-4.22;86.98
75290;BME280;63883;48.996;20.804;2022-11-20T00:15:28;96205.09;;;-4.22;86.18
75290;BME280;63883;48.996;20.804;2022-11-20T00:17:54;96213.38;;;-4.23;86.23
75290;BME280;63883;48.996;20.804;2022-11-20T00:20:20;96208.38;;;-4.23;86.76
75290;BME280;63883;48.996;20.804;2022-11-20T00:22:46;96200.88;;;-4.24;86.46
75290;BME280;63883;48.996;20.804;2022-11-20T00:25:11;96216.53;;;-4.30;85.89
75290;BME280;63883;48.996;20.804;2022-11-20T00:27:37;96224.66;;;-4.37;85.83
75290;BME280;63883;48.996;20.804;2022-11-20T00:30:04;96227.88;;;-4.41;86.35
75290;BME280;63883;48.996;20.804;2022-11-20T00:32:30;96224.50;;;-4.43;86.28
75290;BME280;63883;48.996;20.804;2022-11-20T00:34:55;96240.22;;;-4.44;86.90
75290;BME280;63883;48.996;20.804;2022-11-20T00:37:21;96251.31;;;-4.33;87.32
75290;BME280;63883;48.996;20.804;2022-11-20T00:39:47;96254.03;;;-4.22;87.15
75290;BME280;63883;48.996;20.804;2022-11-20T00:42:12;96256.53;;;-4.22;86.43
75290;BME280;63883;48.996;20.804;2022-11-20T00:44:38;96254.88;;;-4.22;86.31
75290;BME280;63883;48.996;20.804;2022-11-20T00:47:04;96245.66;;;-4.26;86.97
75290;BME280;63883;48.996;20.804;2022-11-20T00:49:29;96247.19;;;-4.32;87.07
75290;BME280;63883;48.996;20.804;2022-11-20T00:51:55;96247.88;;;-4.37;87.43
75290;BME280;63883;48.996;20.804;2022-11-20T00:54:21;96247.75;;;-4.43;87.73
75290;BME280;63883;48.996;20.804;2022-11-20T00:56:46;96251.72;;;-4.49;87.13
75290;BME280;63883;48.996;20.804;2022-11-20T00:59:12;96247.44;;;-4.55;88.54
75290;BME280;63883;48.996;20.804;2022-11-20T01:01:38;96245.81;;;-4.54;88.42
75290;BME280;63883;48.996;20.804;2022-11-20T01:04:04;96241.59;;;-4.57;88.55
75290;BME280;63883;48.996;20.804;2022-11-20T01:06:34;96237.41;;;-4.58;88.14
75290;BME280;63883;48.996;20.804;2022-11-20T01:09:09;96237.31;;;-4.62;88.61
75290;BME280;63883;48.996;20.804;2022-11-20T01:11:37;96239.81;;;-4.61;88.76
75290;BME280;63883;48.996;20.804;2022-11-20T01:14:06;96242.34;;;-4.59;88.26
75290;BME280;63883;48.996;20.804;2022-11-20T01:16:35;96244.88;;;-4.58;88.62
75290;BME280;63883;48.996;20.804;2022-11-20T01:19:03;96243.97;;;-4.60;88.03
75290;BME280;63883;48.996;20.804;2022-11-20T01:21:31;96236.38;;;-4.66;88.53
75290;BME280;63883;48.996;20.804;2022-11-20T01:23:57;96225.50;;;-4.69;88.44
75290;BME280;63883;48.996;20.804;2022-11-20T01:26:26;96223.81;;;-4.70;88.86
75290;BME280;63883;48.996;20.804;2022-11-20T01:28:53;96223.13;;;-4.65;87.87
75290;BME280;63883;48.996;20.804;2022-11-20T01:31:27;96228.16;;;-4.63;88.01
75290;BME280;63883;48.996;20.804;2022-11-20T01:33:56;96227.34;;;-4.62;87.64
75290;BME280;63883;48.996;20.804;2022-11-20T01:36:25;96215.72;;;-4.63;87.57
75290;BME280;63883;48.996;20.804;2022-11-20T01:38:55;96226.56;;;-4.61;87.19
75290;BME280;63883;48.996;20.804;2022-11-20T01:41:22;96219.09;;;-4.61;87.21
75290;BME280;63883;48.996;20.804;2022-11-20T01:44:06;96225.72;;;-4.60;86.76
75290;BME280;63883;48.996;20.804;2022-11-20T01:46:39;96227.41;;;-4.59;87.16
75290;BME280;63883;48.996;20.804;2022-11-20T01:49:16;96224.06;;;-4.61;86.78
75290;BME280;63883;48.996;20.804;2022-11-20T01:52:00;96219.00;;;-4.64;86.88
75290;BME280;63883;48.996;20.804;2022-11-20T01:54:39;96218.84;;;-4.70;86.66
75290;BME280;63883;48.996;20.804;2022-11-20T01:57:09;96217.28;;;-4.67;87.41
75290;BME280;63883;48.996;20.804;2022-11-20T01:59:41;96218.91;;;-4.69;87.91
75290;BME280;63883;48.996;20.804;2022-11-20T02:02:10;96215.41;;;-4.76;86.98
75290;BME280;63883;48.996;20.804;2022-11-20T02:04:36;96216.91;;;-4.81;87.53
75290;BME280;63883;48.996;20.804;2022-11-20T02:07:03;96210.34;;;-4.79;88.02
75290;BME280;63883;48.996;20.804;2022-11-20T02:09:30;96213.72;;;-4.77;88.06
75290;BME280;63883;48.996;20.804;2022-11-20T02:11:57;96207.91;;;-4.77;87.78
75290;BME280;63883;48.996;20.804;2022-11-20T02:14:24;96206.97;;;-4.81;87.34
75290;BME280;63883;48.996;20.804;2022-11-20T02:16:50;96213.63;;;-4.80;87.47
75290;BME280;63883;48.996;20.804;2022-11-20T02:19:29;96221.06;;;-4.81;87.75
75290;BME280;63883;48.996;20.804;2022-11-20T02:22:11;96207.78;;;-4.82;87.36
75290;BME280;63883;48.996;20.804;2022-11-20T02:24:39;96212.78;;;-4.80;88.07
75290;BME280;63883;48.996;20.804;2022-11-20T02:27:10;96205.28;;;-4.83;88.02
75290;BME280;63883;48.996;20.804;2022-11-20T02:29:50;96203.53;;;-4.86;87.97
75290;BME280;63883;48.996;20.804;2022-11-20T02:32:22;96202.75;;;-4.85;88.06
75290;BME280;63883;48.996;20.804;2022-11-20T02:34:49;96194.63;;;-4.78;88.08
75290;BME280;63883;48.996;20.804;2022-11-20T02:37:15;96178.06;;;-4.77;88.06
75290;BME280;63883;48.996;20.804;2022-11-20T02:39:41;96180.59;;;-4.76;87.46
75290;BME280;63883;48.996;20.804;2022-11-20T02:42:08;96187.41;;;-4.68;87.61
75290;BME280;63883;48.996;20.804;2022-11-20T02:44:34;96188.34;;;-4.63;87.19
75290;BME280;63883;48.996;20.804;2022-11-20T02:47:00;96177.50;;;-4.65;87.47
75290;BME280;63883;48.996;20.804;2022-11-20T02:49:26;96185.72;;;-4.69;87.65
75290;BME280;63883;48.996;20.804;2022-11-20T02:51:51;96191.63;;;-4.64;87.40
75290;BME280;63883;48.996;20.804;2022-11-20T02:54:17;96190.00;;;-4.64;87.26
75290;BME280;63883;48.996;20.804;2022-11-20T02:59:27;96190.19;;;-4.56;86.66
75290;BME280;63883;48.996;20.804;2022-11-20T03:01:52;96181.97;;;-4.52;87.10
75290;BME280;63883;48.996;20.804;2022-11-20T03:04:18;96176.19;;;-4.51;86.84
75290;BME280;63883;48.996;20.804;2022-11-20T03:06:44;96166.94;;;-4.57;86.95
75290;BME280;63883;48.996;20.804;2022-11-20T03:09:09;96151.03;;;-4.63;86.95
75290;BME280;63883;48.996;20.804;2022-11-20T03:11:35;96152.59;;;-4.67;87.49
75290;BME280;63883;48.996;20.804;2022-11-20T03:14:04;96142.63;;;-4.68;87.20
75290;BME280;63883;48.996;20.804;2022-11-20T03:16:31;96138.47;;;-4.68;87.45
75290;BME280;63883;48.996;20.804;2022-11-20T03:18:57;96141.75;;;-4.70;86.89
75290;BME280;63883;48.996;20.804;2022-11-20T03:21:22;96147.44;;;-4.75;86.97
75290;BME280;63883;48.996;20.804;2022-11-20T03:23:48;96147.44;;;-4.76;87.71
75290;BME280;63883;48.996;20.804;2022-11-20T03:26:19;96149.94;;;-4.75;87.71
75290;BME280;63883;48.996;20.804;2022-11-20T03:28:49;96151.63;;;-4.74;86.88
75290;BME280;63883;48.996;20.804;2022-11-20T03:31:17;96142.47;;;-4.75;87.18
75290;BME280;63883;48.996;20.804;2022-11-20T03:33:44;96139.06;;;-4.78;86.95
75290;BME280;63883;48.996;20.804;2022-11-20T03:36:12;96153.16;;;-4.79;87.62
75290;BME280;63883;48.996;20.804;2022-11-20T03:38:38;96142.47;;;-4.75;87.10
75290;BME280;63883;48.996;20.804;2022-11-20T03:41:07;96147.53;;;-4.72;87.30
75290;BME280;63883;48.996;20.804;2022-11-20T03:43:33;96139.97;;;-4.75;87.12
75290;BME280;63883;48.996;20.804;2022-11-20T03:45:59;96139.03;;;-4.80;87.44
75290;BME280;63883;48.996;20.804;2022-11-20T03:48:25;96143.22;;;-4.79;87.77
75290;BME280;63883;48.996;20.804;2022-11-20T03:50:53;96137.50;;;-4.75;87.75
75290;BME280;63883;48.996;20.804;2022-11-20T03:53:19;96135.00;;;-4.75;87.05
75290;BME280;63883;48.996;20.804;2022-11-20T03:55:50;96134.28;;;-4.70;87.35
75290;BME280;63883;48.996;20.804;2022-11-20T03:58:16;96137.69;;;-4.67;87.05
75290;BME280;63883;48.996;20.804;2022-11-20T04:00:43;96144.47;;;-4.60;87.74
75290;BME280;63883;48.996;20.804;2022-11-20T04:03:09;96149.00;;;-4.44;87.65
75290;BME280;63883;48.996;20.804;2022-11-20T04:05:34;96156.69;;;-4.35;87.53
75290;BME280;63883;48.996;20.804;2022-11-20T04:08:00;96163.53;;;-4.26;86.64
75290;BME280;63883;48.996;20.804;2022-11-20T04:10:26;96152.00;;;-4.22;86.47
75290;BME280;63883;48.996;20.804;2022-11-20T04:12:51;96145.50;;;-4.16;86.06
75290;BME280;63883;48.996;20.804;2022-11-20T04:15:17;96154.44;;;-4.25;86.25
75290;BME280;63883;48.996;20.804;2022-11-20T04:17:43;96156.66;;;-4.36;86.69
75290;BME280;63883;48.996;20.804;2022-11-20T04:20:09;96150.75;;;-4.41;86.77
75290;BME280;63883;48.996;20.804;2022-11-20T04:22:35;96151.50;;;-4.44;87.13
75290;BME280;63883;48.996;20.804;2022-11-20T04:25:00;96153.09;;;-4.46;87.34
75290;BME280;63883;48.996;20.804;2022-11-20T04:27:26;96148.91;;;-4.48;87.32
75290;BME280;63883;48.996;20.804;2022-11-20T04:29:52;96149.75;;;-4.48;87.52
75290;BME280;63883;48.996;20.804;2022-11-20T04:32:18;96145.63;;;-4.46;87.46
75290;BME280;63883;48.996;20.804;2022-11-20T04:34:43;96139.00;;;-4.47;88.10
75290;BME280;63883;48.996;20.804;2022-11-20T04:37:09;96139.81;;;-4.46;88.04
75290;BME280;63883;48.996;20.804;2022-11-20T04:39:35;96134.78;;;-4.49;88.08
75290;BME280;63883;48.996;20.804;2022-11-20T04:42:00;96129.81;;;-4.49;88.13
75290;BME280;63883;48.996;20.804;2022-11-20T04:44:44;96135.63;;;-4.49;88.24
75290;BME280;63883;48.996;20.804;2022-11-20T04:47:10;96136.44;;;-4.50;88.29
75290;BME280;63883;48.996;20.804;2022-11-20T04:49:36;96134.72;;;-4.52;88.17
75290;BME280;63883;48.996;20.804;2022-11-20T04:52:01;96132.22;;;-4.52;88.25
75290;BME280;63883;48.996;20.804;2022-11-20T04:54:27;96134.72;;;-4.52;88.05
75290;BME280;63883;48.996;20.804;2022-11-20T04:56:53;96143.94;;;-4.48;87.91
75290;BME280;63883;48.996;20.804;2022-11-20T04:59:18;96139.28;;;-4.35;87.67
75290;BME280;63883;48.996;20.804;2022-11-20T05:01:44;96123.28;;;-4.07;86.62
75290;BME280;63883;48.996;20.804;2022-11-20T05:04:10;96116.66;;;-4.06;86.22
75290;BME280;63883;48.996;20.804;2022-11-20T05:06:36;96110.31;;;-3.92;85.27
75290;BME280;63883;48.996;20.804;2022-11-20T05:09:01;96092.81;;;-3.95;85.24
75290;BME280;63883;48.996;20.804;2022-11-20T05:11:27;96088.34;;;-4.11;86.19
75290;BME280;63883;48.996;20.804;2022-11-20T05:13:54;96110.50;;;-4.22;86.29
75290;BME280;63883;48.996;20.804;2022-11-20T05:16:22;96120.25;;;-4.31;86.59
75290;BME280;63883;48.996;20.804;2022-11-20T05:18:49;96127.69;;;-4.34;87.15
75290;BME280;63883;48.996;20.804;2022-11-20T05:21:15;96142.59;;;-4.34;86.96
75290;BME280;63883;48.996;20.804;2022-11-20T05:23:42;96131.91;;;-4.30;87.25
75290;BME280;63883;48.996;20.804;2022-11-20T05:26:15;96136.78;;;-4.35;87.46
75290;BME280;63883;48.996;20.804;2022-11-20T05:28:41;96136.03;;;-4.30;86.95
75290;BME280;63883;48.996;20.804;2022-11-20T05:31:15;96132.56;;;-4.37;87.65
75290;BME280;63883;48.996;20.804;2022-11-20T05:33:43;96120.81;;;-4.44;87.71
75290;BME280;63883;48.996;20.804;2022-11-20T05:36:09;96131.47;;;-4.50;87.97
75290;BME280;63883;48.996;20.804;2022-11-20T05:38:36;96137.09;;;-4.57;87.99
75290;BME280;63883;48.996;20.804;2022-11-20T05:41:06;96135.31;;;-4.61;87.76
75290;BME280;63883;48.996;20.804;2022-11-20T05:43:33;96120.34;;;-4.64;88.20
75290;BME280;63883;48.996;20.804;2022-11-20T05:46:00;96118.88;;;-4.56;88.49
75290;BME280;63883;48.996;20.804;2022-11-20T05:48:26;96117.28;;;-4.54;88.53
75290;BME280;63883;48.996;20.804;2022-11-20T05:50:51;96104.19;;;-4.45;87.87
75290;BME280;63883;48.996;20.804;2022-11-20T05:53:17;96090.06;;;-4.46;87.64
75290;BME280;63883;48.996;20.804;2022-11-20T05:55:43;96094.13;;;-4.50;87.76
75290;BME280;63883;48.996;20.804;2022-11-20T05:58:09;96091.66;;;-4.50;88.57
75290;BME280;63883;48.996;20.804;2022-11-20T06:00:34;96090.06;;;-4.46;88.25
75290;BME280;63883;48.996;20.804;2022-11-20T06:03:01;96094.28;;;-4.44;88.13
75290;BME280;63883;48.996;20.804;2022-11-20T06:05:26;96114.28;;;-4.39;88.45
75290;BME280;63883;48.996;20.804;2022-11-20T06:07:52;96106.88;;;-4.36;87.86
75290;BME280;63883;48.996;20.804;2022-11-20T06:10:18;96116.88;;;-4.35;86.97
75290;BME280;63883;48.996;20.804;2022-11-20T06:12:44;96116.13;;;-4.30;87.28
75290;BME280;63883;48.996;20.804;2022-11-20T06:15:09;96117.97;;;-4.22;86.92
75290;BME280;63883;48.996;20.804;2022-11-20T06:17:35;96118.91;;;-4.17;86.94
75290;BME280;63883;48.996;20.804;2022-11-20T06:20:01;96112.31;;;-4.15;87.07
75290;BME280;63883;48.996;20.804;2022-11-20T06:22:27;96114.91;;;-4.10;86.77
75290;BME280;63883;48.996;20.804;2022-11-20T06:24:52;96106.72;;;-4.06;86.79
75290;BME280;63883;48.996;20.804;2022-11-20T06:27:18;96102.63;;;-4.03;86.54
75290;BME280;63883;48.996;20.804;2022-11-20T06:29:44;96104.50;;;-3.92;86.66
75290;BME280;63883;48.996;20.804;2022-11-20T06:32:09;96094.88;;;-3.76;86.68
75290;BME280;63883;48.996;20.804;2022-11-20T06:34:35;96091.00;;;-3.62;85.21
75290;BME280;63883;48.996;20.804;2022-11-20T06:37:01;96099.50;;;-3.50;84.23
75290;BME280;63883;48.996;20.804;2022-11-20T06:39:26;96093.75;;;-3.48;84.63
75290;BME280;63883;48.996;20.804;2022-11-20T06:41:52;96088.03;;;-3.42;84.23
75290;BME280;63883;48.996;20.804;2022-11-20T06:44:17;96094.75;;;-3.38;83.79
75290;BME280;63883;48.996;20.804;2022-11-20T06:46:43;96102.34;;;-3.34;83.87
75290;BME280;63883;48.996;20.804;2022-11-20T06:49:09;96098.31;;;-3.26;83.67
75290;BME280;63883;48.996;20.804;2022-11-20T06:51:35;96094.19;;;-3.24;83.83
75290;BME280;63883;48.996;20.804;2022-11-20T06:54:00;96087.53;;;-3.25;83.63
75290;BME280;63883;48.996;20.804;2022-11-20T06:56:26;96099.13;;;-3.27;83.79
75290;BME280;63883;48.996;20.804;2022-11-20T06:58:52;96099.84;;;-3.34;83.78
75290;BME280;63883;48.996;20.804;2022-11-20T07:01:18;96084.06;;;-3.31;84.36
75290;BME280;63883;48.996;20.804;2022-11-20T07:03:43;96076.72;;;-3.24;84.37
75290;BME280;63883;48.996;20.804;2022-11-20T07:08:43;96080.91;;;-3.23;83.90
75290;BME280;63883;48.996;20.804;2022-11-20T07:11:11;96096.72;;;-3.22;84.11
75290;BME280;63883;48.996;20.804;2022-11-20T07:13:37;96098.34;;;-3.24;84.92
75290;BME280;63883;48.996;20.804;2022-11-20T07:16:05;96088.28;;;-3.29;84.64
75290;BME280;63883;48.996;20.804;2022-11-20T07:18:31;96096.59;;;-3.28;84.73
75290;BME280;63883;48.996;20.804;2022-11-20T07:21:06;96111.50;;;-3.31;84.81
75290;BME280;63883;48.996;20.804;2022-11-20T07:23:32;96115.72;;;-3.29;85.54
75290;BME280;63883;48.996;20.804;2022-11-20T07:26:05;96111.63;;;-3.25;85.15
75290;BME280;63883;48.996;20.804;2022-11-20T07:28:31;96109.28;;;-3.16;85.18
75290;BME280;63883;48.996;20.804;2022-11-20T07:30:57;96106.00;;;-3.13;85.07
75290;BME280;63883;48.996;20.804;2022-11-20T07:33:23;96113.69;;;-3.01;84.47
75290;BME280;63883;48.996;20.804;2022-11-20T07:35:49;96113.00;;;-2.94;84.11
75290;BME280;63883;48.996;20.804;2022-11-20T07:38:14;96120.69;;;-2.81;83.92
75290;BME280;63883;48.996;20.804;2022-11-20T07:40:40;96112.59;;;-2.69;82.81
75290;BME280;63883;48.996;20.804;2022-11-20T07:43:06;96114.38;;;-2.62;82.96
75290;BME280;63883;48.996;20.804;2022-11-20T07:45:32;96097.22;;;-2.41;82.07
75290;BME280;63883;48.996;20.804;2022-11-20T07:47:57;96103.31;;;-2.23;81.49
75290;BME280;63883;48.996;20.804;2022-11-20T07:50:23;96112.63;;;-2.09;81.56
75290;BME280;63883;48.996;20.804;2022-11-20T07:52:48;96111.91;;;-2.02;81.16
75290;BME280;63883;48.996;20.804;2022-11-20T07:55:15;96103.66;;;-1.96;80.23
75290;BME280;63883;48.996;20.804;2022-11-20T07:57:41;96086.97;;;-1.99;80.26
75290;BME280;63883;48.996;20.804;2022-11-20T08:00:09;96085.47;;;-1.84;79.08
75290;BME280;63883;48.996;20.804;2022-11-20T08:02:39;96087.25;;;-1.77;78.95
75290;BME280;63883;48.996;20.804;2022-11-20T08:05:05;96097.19;;;-1.82;79.42
75290;BME280;63883;48.996;20.804;2022-11-20T08:07:41;96098.88;;;-1.79;79.61
75290;BME280;63883;48.996;20.804;2022-11-20T08:10:10;96099.69;;;-1.82;79.46
75290;BME280;63883;48.996;20.804;2022-11-20T08:12:44;96113.81;;;-1.84;79.24
75290;BME280;63883;48.996;20.804;2022-11-20T08:15:29;96117.09;;;-1.89;77.57
75290;BME280;63883;48.996;20.804;2022-11-20T08:18:09;96107.72;;;-2.04;78.11
75290;BME280;63883;48.996;20.804;2022-11-20T08:20:36;96106.72;;;-2.17;79.05
75290;BME280;63883;48.996;20.804;2022-11-20T08:23:06;96111.69;;;-2.18;79.09
75290;BME280;63883;48.996;20.804;2022-11-20T08:25:37;96115.06;;;-2.15;79.08
75290;BME280;63883;48.996;20.804;2022-11-20T08:28:05;96106.00;;;-2.07;79.49
75290;BME280;63883;48.996;20.804;2022-11-20T08:30:32;96116.06;;;-2.04;78.64
75290;BME280;63883;48.996;20.804;2022-11-20T08:33:06;96114.50;;;-1.94;78.51
75290;BME280;63883;48.996;20.804;2022-11-20T08:35:34;96114.53;;;-1.92;78.50
75290;BME280;63883;48.996;20.804;2022-11-20T08:38:04;96105.44;;;-1.86;78.47
75290;BME280;63883;48.996;20.804;2022-11-20T08:40:31;96110.66;;;-1.69;78.11
75290;BME280;63883;48.996;20.804;2022-11-20T08:42:56;96109.97;;;-1.58;76.86
75290;BME280;63883;48.996;20.804;2022-11-20T08:45:22;96113.38;;;-1.52;76.89
75290;BME280;63883;48.996;20.804;2022-11-20T08:47:48;96096.94;;;-1.32;76.90
75290;BME280;63883;48.996;20.804;2022-11-20T08:50:15;96084.53;;;-1.23;75.86
75290;BME280;63883;48.996;20.804;2022-11-20T08:52:42;96080.41;;;-1.18;75.75
75290;BME280;63883;48.996;20.804;2022-11-20T08:55:08;96088.63;;;-1.28;75.19
75290;BME280;63883;48.996;20.804;2022-11-20T08:57:37;96070.25;;;-1.33;76.08
75290;BME280;63883;48.996;20.804;2022-11-20T09:00:06;96084.34;;;-1.37;76.76
75290;BME280;63883;48.996;20.804;2022-11-20T09:02:32;96079.31;;;-1.41;77.41
75290;BME280;63883;48.996;20.804;2022-11-20T09:04:58;96089.41;;;-1.34;78.10
75290;BME280;63883;48.996;20.804;2022-11-20T09:07:24;96091.94;;;-1.32;77.75
75290;BME280;63883;48.996;20.804;2022-11-20T09:09:50;96075.28;;;-1.30;77.95
75290;BME280;63883;48.996;20.804;2022-11-20T09:12:15;96085.34;;;-1.21;77.20
75290;BME280;63883;48.996;20.804;2022-11-20T09:14:41;96100.50;;;-1.10;77.00
75290;BME280;63883;48.996;20.804;2022-11-20T09:17:07;96111.41;;;-1.01;76.92
75290;BME280;63883;48.996;20.804;2022-11-20T09:19:39;96113.00;;;-1.07;76.89
75290;BME280;63883;48.996;20.804;2022-11-20T09:22:05;96112.25;;;-1.00;76.93
75290;BME280;63883;48.996;20.804;2022-11-20T09:24:31;96109.00;;;-0.92;77.03
75290;BME280;63883;48.996;20.804;2022-11-20T09:26:56;96104.03;;;-0.89;76.91
75290;BME280;63883;48.996;20.804;2022-11-20T09:29:22;96107.41;;;-0.84;76.57
75290;BME280;63883;48.996;20.804;2022-11-20T09:31:48;96104.94;;;-0.77;76.65
75290;BME280;63883;48.996;20.804;2022-11-20T09:34:13;96107.56;;;-0.67;76.44
75290;BME280;63883;48.996;20.804;2022-11-20T09:36:39;96109.28;;;-0.61;75.69
75290;BME280;63883;48.996;20.804;2022-11-20T09:39:05;96095.06;;;-0.65;75.50
75290;BME280;63883;48.996;20.804;2022-11-20T09:47:12;96075.09;;;-0.55;75.41
75290;BME280;63883;48.996;20.804;2022-11-20T09:49:55;96076.03;;;-0.39;74.38
75290;BME280;63883;48.996;20.804;2022-11-20T09:55:18;96063.75;;;-0.01;73.16
75290;BME280;63883;48.996;20.804;2022-11-20T09:57:46;96067.13;;;0.10;72.49
75290;BME280;63883;48.996;20.804;2022-11-20T10:00:14;96063.00;;;0.20;72.51
75290;BME280;63883;48.996;20.804;2022-11-20T10:26:51;96057.03;;;-0.05;72.53
75290;BME280;63883;48.996;20.804;2022-11-20T10:29:00;96045.44;;;0.17;72.60
75290;BME280;63883;48.996;20.804;2022-11-20T10:31:41;96034.66;;;0.45;72.28
75290;BME280;63883;48.996;20.804;2022-11-20T10:34:31;96033.03;;;0.58;71.33
75290;BME280;63883;48.996;20.804;2022-11-20T10:40:42;96016.34;;;1.39;69.11
75290;BME280;63883;48.996;20.804;2022-11-20T10:49:19;96004.28;;;2.47;64.79
75290;BME280;63883;48.996;20.804;2022-11-20T10:57:40;96001.00;;;4.27;59.19
75290;BME280;63883;48.996;20.804;2022-11-20T11:00:11;95987.06;;;3.99;56.95
75290;BME280;63883;48.996;20.804;2022-11-20T11:02:53;95981.41;;;3.78;57.28
75290;BME280;63883;48.996;20.804;2022-11-20T11:05:41;95977.69;;;4.08;56.49
75290;BME280;63883;48.996;20.804;2022-11-20T11:08:17;95979.03;;;3.63;55.79
75290;BME280;63883;48.996;20.804;2022-11-20T11:10:58;95982.63;;;3.39;58.33
75290;BME280;63883;48.996;20.804;2022-11-20T11:13:27;95975.50;;;3.78;57.88
75290;BME280;63883;48.996;20.804;2022-11-20T11:15:53;95977.00;;;3.96;59.16
75290;BME280;63883;48.996;20.804;2022-11-20T11:18:29;95969.28;;;4.08;58.61
75290;BME280;63883;48.996;20.804;2022-11-20T11:20:57;95974.19;;;4.20;58.05
75290;BME280;63883;48.996;20.804;2022-11-20T11:23:36;95962.00;;;4.52;56.56
75290;BME280;63883;48.996;20.804;2022-11-20T11:29:44;95970.41;;;5.09;53.81
75290;BME280;63883;48.996;20.804;2022-11-20T11:32:15;95975.44;;;5.09;52.17
75290;BME280;63883;48.996;20.804;2022-11-20T11:34:42;95973.56;;;5.70;51.76
75290;BME280;63883;48.996;20.804;2022-11-20T11:40:49;95977.44;;;7.43;47.31
75290;BME280;63883;48.996;20.804;2022-11-20T11:43:21;95968.47;;;8.27;45.38
75290;BME280;63883;48.996;20.804;2022-11-20T11:52:29;95977.34;;;7.80;46.04
75290;BME280;63883;48.996;20.804;2022-11-20T11:54:58;95968.38;;;7.34;47.06
75290;BME280;63883;48.996;20.804;2022-11-20T12:00:14;95958.34;;;7.95;46.57
75290;BME280;63883;48.996;20.804;2022-11-20T12:09:03;95953.38;;;10.99;38.58
75290;BME280;63883;48.996;20.804;2022-11-20T12:11:49;95943.53;;;11.73;36.96
75290;BME280;63883;48.996;20.804;2022-11-20T12:14:22;95940.91;;;11.13;37.10
75290;BME280;63883;48.996;20.804;2022-11-20T12:20:43;95932.47;;;9.99;39.14
75290;BME280;63883;48.996;20.804;2022-11-20T12:23:24;95927.16;;;8.78;42.98
75290;BME280;63883;48.996;20.804;2022-11-20T12:49:44;95895.03;;;12.31;35.61
75290;BME280;63883;48.996;20.804;2022-11-20T12:52:21;95886.56;;;12.84;34.18
75290;BME280;63883;48.996;20.804;2022-11-20T12:55:11;95876.22;;;12.87;34.41
75290;BME280;63883;48.996;20.804;2022-11-20T12:57:58;95892.47;;;11.11;37.30
75290;BME280;63883;48.996;20.804;2022-11-20T13:00:30;95887.84;;;10.57;38.87
75290;BME280;63883;48.996;20.804;2022-11-20T13:05:51;95882.50;;;10.41;38.92
75290;BME280;63883;48.996;20.804;2022-11-20T13:08:24;95878.06;;;10.00;40.06
75290;BME280;63883;48.996;20.804;2022-11-20T13:11:01;95876.47;;;9.49;41.14
75290;BME280;63883;48.996;20.804;2022-11-20T13:20:14;95899.81;;;7.99;45.45
75290;BME280;63883;48.996;20.804;2022-11-20T13:22:52;95900.78;;;7.32;48.09
75290;BME280;63883;48.996;20.804;2022-11-20T13:29:17;95908.50;;;9.05;43.01
75290;BME280;63883;48.996;20.804;2022-11-20T13:31:45;95903.69;;;9.72;41.21
75290;BME280;63883;48.996;20.804;2022-11-20T13:34:25;95898.47;;;9.75;41.49
75290;BME280;63883;48.996;20.804;2022-11-20T13:36:54;95906.13;;;9.25;42.10
75290;BME280;63883;48.996;20.804;2022-11-20T13:39:27;95917.81;;;7.92;46.43
75290;BME280;63883;48.996;20.804;2022-11-20T13:41:58;95920.56;;;6.48;50.45
75290;BME280;63883;48.996;20.804;2022-11-20T13:46:53;95934.91;;;5.14;55.97
75290;BME280;63883;48.996;20.804;2022-11-20T13:49:54;95946.47;;;4.77;57.36
75290;BME280;63883;48.996;20.804;2022-11-20T14:01:29;95937.09;;;3.54;62.04
75290;BME280;63883;48.996;20.804;2022-11-20T14:03:57;95931.47;;;3.30;63.87
75290;BME280;63883;48.996;20.804;2022-11-20T14:06:29;95928.34;;;3.06;64.42
75290;BME280;63883;48.996;20.804;2022-11-20T14:08:57;95929.09;;;3.13;64.47
75290;BME280;63883;48.996;20.804;2022-11-20T14:11:29;95933.50;;;2.88;65.24
75290;BME280;63883;48.996;20.804;2022-11-20T14:14:01;95931.25;;;2.53;66.74
75290;BME280;63883;48.996;20.804;2022-11-20T14:20:14;95940.72;;;2.13;69.64
75290;BME280;63883;48.996;20.804;2022-11-20T14:22:49;95942.41;;;2.11;69.49
75290;BME280;63883;48.996;20.804;2022-11-20T14:29:02;95936.69;;;1.76;69.64
75290;BME280;63883;48.996;20.804;2022-11-20T14:31:28;95933.38;;;1.68;70.82
75290;BME280;63883;48.996;20.804;2022-11-20T14:33:54;95946.78;;;1.61;71.05
75290;BME280;63883;48.996;20.804;2022-11-20T14:36:23;95936.75;;;1.53;71.84
75290;BME280;63883;48.996;20.804;2022-11-20T14:38:51;95933.38;;;1.58;71.71
75290;BME280;63883;48.996;20.804;2022-11-20T14:41:22;95925.03;;;1.63;71.53
75290;BME280;63883;48.996;20.804;2022-11-20T14:43:56;95932.59;;;1.44;71.24
75290;BME280;63883;48.996;20.804;2022-11-20T14:46:23;95933.50;;;1.17;72.86
75290;BME280;63883;48.996;20.804;2022-11-20T14:48:51;95936.06;;;0.86;74.17
75290;BME280;63883;48.996;20.804;2022-11-20T14:51:31;95938.53;;;0.58;74.79
75290;BME280;63883;48.996;20.804;2022-11-20T14:54:16;95931.00;;;0.40;76.07
75290;BME280;63883;48.996;20.804;2022-11-20T15:00:24;95937.63;;;0.05;76.31
75290;BME280;63883;48.996;20.804;2022-11-20T15:02:51;95928.38;;;-0.15;76.69
75290;BME280;63883;48.996;20.804;2022-11-20T15:05:23;95935.84;;;-0.24;79.02
75290;BME280;63883;48.996;20.804;2022-11-20T15:08:07;95939.13;;;-0.37;80.66
75290;BME280;63883;48.996;20.804;2022-11-20T15:10:33;95926.50;;;-0.57;81.20
75290;BME280;63883;48.996;20.804;2022-11-20T15:13:03;95938.13;;;-0.71;81.45
75290;BME280;63883;48.996;20.804;2022-11-20T15:15:32;95939.72;;;-0.82;81.79
75290;BME280;63883;48.996;20.804;2022-11-20T15:18:00;95941.31;;;-0.92;81.68
75290;BME280;63883;48.996;20.804;2022-11-20T15:20:28;95950.44;;;-1.03;81.65